Pagrindinis puslapis
METAR-TAF:

METAR-TAF

Oro uostai :

Sälen Trysil, Švedija

platuma: 61-09-32N, ilguma: 12-50-24E, Aukštis: 490 m

Dabartinis oras

Ataskaita buvo paskelbta 1 valandą ir 14 minutes, ne 03:50 UTC
Vėjas 6 kt iš Pietvakarių, svyruoja nuo Pietų ir Vakarų
Temperatūra -1°C
Drėgmė 69%
Slėgis 975 hPa
Matomumas 10 km arba daugiau

METAR: ESKS 300350Z AUTO 22006KT 180V260 9999 BKN180/// M01/M06 Q0975

Laikas: 06:04 (05:04 UTC)

Prognozė

Ataskaita buvo paskelbta 11 valandos ir 34 minutes, ne 17:30 UTC
Prognozė galioja nuo 29 metu 18 UTC su 29 metu 20 UTC
Vėjas 12 kt iš Pietų/Pietvakarių
Matomumas 10 km arba daugiau
Išsisklaidę debesys ne aukštis 1200 ft
Su prošvaistėmis ne aukštis 4500 ft
Tikimybė 40%
nuo 29 metu 18 UTC su 29 metu 20 UTC
Su prošvaistėmis ne aukštis 600 ft

TAF: ESKS 291730Z 2918/2920 20012KT 9999 SCT012 BKN045 PROB40 2918/2920 BKN006

Orai ataskaitas ir orų prognozės (METAR, TAF).

turimą stotys yra geltonos ir raudonos taškus žemėlapyje.

Perkelti pele per norėdami pamatyti stoties vardą.

Tada spustelėkite, norėdami matyti oro stebėjimo ir prognozės.

Norėdami pakeisti žemėlapį: spustelėkite ant žalios mygtukų su juodo kryžiaus žemyn,; žalią mygtuką su brūkšneliu, jei norite nutolinti; arba žalių rodyklių gretimoms žemėlapius.


METAR-TAF: